sensor_id;sensor_type;location;lat;lon;timestamp;pressure;altitude;pressure_sealevel;temperature;humidity
6387;BME280;3226;42.162;24.756;2023-05-02T00:02:05;100138.88;;;10.91;94.22
6387;BME280;3226;42.162;24.756;2023-05-02T00:04:33;100151.63;;;10.84;94.28
6387;BME280;3226;42.162;24.756;2023-05-02T00:07:01;100151.34;;;10.76;95.71
6387;BME280;3226;42.162;24.756;2023-05-02T00:09:29;100155.53;;;10.90;93.57
6387;BME280;3226;42.162;24.756;2023-05-02T00:11:57;100154.88;;;10.99;92.46
6387;BME280;3226;42.162;24.756;2023-05-02T00:14:25;100154.81;;;10.88;93.34
6387;BME280;3226;42.162;24.756;2023-05-02T00:16:53;100156.97;;;10.82;93.00
6387;BME280;3226;42.162;24.756;2023-05-02T00:19:23;100161.88;;;10.87;91.81
6387;BME280;3226;42.162;24.756;2023-05-02T00:21:51;100159.72;;;10.92;90.67
6387;BME280;3226;42.162;24.756;2023-05-02T00:24:19;100159.47;;;10.84;90.58
6387;BME280;3226;42.162;24.756;2023-05-02T00:26:47;100156.97;;;10.94;90.60
6387;BME280;3226;42.162;24.756;2023-05-02T00:29:15;100164.25;;;10.90;92.55
6387;BME280;3226;42.162;24.756;2023-05-02T00:31:43;100169.72;;;10.87;92.32
6387;BME280;3226;42.162;24.756;2023-05-02T00:34:11;100177.22;;;10.92;92.54
6387;BME280;3226;42.162;24.756;2023-05-02T00:36:40;100148.00;;;10.74;92.10
6387;BME280;3226;42.162;24.756;2023-05-02T00:39:08;100174.97;;;11.10;90.31
6387;BME280;3226;42.162;24.756;2023-05-02T00:41:37;100181.03;;;10.88;90.19
6387;BME280;3226;42.162;24.756;2023-05-02T00:44:05;100178.31;;;10.89;89.25
6387;BME280;3226;42.162;24.756;2023-05-02T00:46:34;100177.09;;;10.82;89.48
6387;BME280;3226;42.162;24.756;2023-05-02T00:49:02;100176.38;;;10.80;89.26
6387;BME280;3226;42.162;24.756;2023-05-02T00:51:31;100183.06;;;10.84;89.41
6387;BME280;3226;42.162;24.756;2023-05-02T00:54:01;100187.44;;;10.83;90.72
6387;BME280;3226;42.162;24.756;2023-05-02T00:56:29;100170.19;;;10.81;91.15
6387;BME280;3226;42.162;24.756;2023-05-02T00:58:57;100182.59;;;10.90;89.88
6387;BME280;3226;42.162;24.756;2023-05-02T01:01:35;100186.63;;;10.83;91.20
6387;BME280;3226;42.162;24.756;2023-05-02T01:04:13;100167.28;;;10.73;91.20
6387;BME280;3226;42.162;24.756;2023-05-02T01:06:54;100183.16;;;10.82;90.98
6387;BME280;3226;42.162;24.756;2023-05-02T01:09:36;100186.13;;;10.78;88.79
6387;BME280;3226;42.162;24.756;2023-05-02T01:12:13;100188.53;;;10.81;89.04
6387;BME280;3226;42.162;24.756;2023-05-02T01:14:50;100187.94;;;10.89;88.37
6387;BME280;3226;42.162;24.756;2023-05-02T01:17:23;100193.50;;;10.73;87.07
6387;BME280;3226;42.162;24.756;2023-05-02T01:19:53;100190.03;;;10.61;88.08
6387;BME280;3226;42.162;24.756;2023-05-02T01:22:23;100185.44;;;10.51;88.99
6387;BME280;3226;42.162;24.756;2023-05-02T01:25:01;100186.47;;;10.62;87.68
6387;BME280;3226;42.162;24.756;2023-05-02T01:27:38;100192.34;;;10.52;86.55
6387;BME280;3226;42.162;24.756;2023-05-02T01:30:11;100193.47;;;10.37;86.99
6387;BME280;3226;42.162;24.756;2023-05-02T01:32:44;100196.19;;;10.35;85.89
6387;BME280;3226;42.162;24.756;2023-05-02T01:35:14;100181.50;;;10.46;86.38
6387;BME280;3226;42.162;24.756;2023-05-02T01:37:44;100194.66;;;10.57;84.12
6387;BME280;3226;42.162;24.756;2023-05-02T01:40:16;100189.25;;;10.47;84.40
6387;BME280;3226;42.162;24.756;2023-05-02T01:42:46;100196.59;;;10.42;84.26
6387;BME280;3226;42.162;24.756;2023-05-02T01:45:17;100189.63;;;10.54;84.45
6387;BME280;3226;42.162;24.756;2023-05-02T01:47:45;100191.06;;;10.58;84.85
6387;BME280;3226;42.162;24.756;2023-05-02T01:50:17;100192.06;;;10.20;88.57
6387;BME280;3226;42.162;24.756;2023-05-02T01:52:47;100194.56;;;10.21;88.48
6387;BME280;3226;42.162;24.756;2023-05-02T01:55:18;100198.19;;;10.32;87.03
6387;BME280;3226;42.162;24.756;2023-05-02T01:57:47;100198.03;;;10.46;86.51
6387;BME280;3226;42.162;24.756;2023-05-02T02:00:19;100194.63;;;10.33;87.11
6387;BME280;3226;42.162;24.756;2023-05-02T02:02:50;100205.28;;;10.43;86.64
6387;BME280;3226;42.162;24.756;2023-05-02T02:05:19;100198.38;;;10.41;87.30
6387;BME280;3226;42.162;24.756;2023-05-02T02:07:49;100204.97;;;10.34;88.80
6387;BME280;3226;42.162;24.756;2023-05-02T02:10:17;100204.03;;;10.11;89.67
6387;BME280;3226;42.162;24.756;2023-05-02T02:12:51;100206.78;;;10.09;90.07
6387;BME280;3226;42.162;24.756;2023-05-02T02:15:26;100201.53;;;10.09;89.98
6387;BME280;3226;42.162;24.756;2023-05-02T02:17:58;100197.91;;;9.86;90.60
6387;BME280;3226;42.162;24.756;2023-05-02T02:20:28;100199.09;;;9.82;88.20
6387;BME280;3226;42.162;24.756;2023-05-02T02:22:59;100192.38;;;9.91;87.29
6387;BME280;3226;42.162;24.756;2023-05-02T02:25:28;100201.84;;;10.05;85.86
6387;BME280;3226;42.162;24.756;2023-05-02T02:27:57;100204.88;;;10.11;86.37
6387;BME280;3226;42.162;24.756;2023-05-02T02:30:26;100195.91;;;10.27;84.65
6387;BME280;3226;42.162;24.756;2023-05-02T02:32:54;100204.44;;;10.18;84.87
6387;BME280;3226;42.162;24.756;2023-05-02T02:35:22;100201.16;;;9.90;87.12
6387;BME280;3226;42.162;24.756;2023-05-02T02:38:00;100201.81;;;9.80;87.20
6387;BME280;3226;42.162;24.756;2023-05-02T02:40:33;100204.63;;;9.90;86.76
6387;BME280;3226;42.162;24.756;2023-05-02T02:43:12;100199.91;;;9.95;86.83
6387;BME280;3226;42.162;24.756;2023-05-02T02:45:54;100214.22;;;10.03;86.63
6387;BME280;3226;42.162;24.756;2023-05-02T02:48:29;100214.63;;;10.09;85.99
6387;BME280;3226;42.162;24.756;2023-05-02T02:51:06;100210.69;;;9.91;86.27
6387;BME280;3226;42.162;24.756;2023-05-02T02:53:43;100215.84;;;9.79;86.59
6387;BME280;3226;42.162;24.756;2023-05-02T02:56:15;100220.34;;;9.77;86.45
6387;BME280;3226;42.162;24.756;2023-05-02T02:58:52;100213.31;;;9.78;85.90
6387;BME280;3226;42.162;24.756;2023-05-02T03:01:24;100216.59;;;9.68;85.75
6387;BME280;3226;42.162;24.756;2023-05-02T03:03:54;100225.69;;;9.63;87.33
6387;BME280;3226;42.162;24.756;2023-05-02T03:06:24;100221.59;;;9.84;85.94
6387;BME280;3226;42.162;24.756;2023-05-02T03:08:53;100225.38;;;9.80;85.38
6387;BME280;3226;42.162;24.756;2023-05-02T03:11:20;100226.53;;;9.63;86.17
6387;BME280;3226;42.162;24.756;2023-05-02T03:13:48;100223.28;;;9.60;86.37
6387;BME280;3226;42.162;24.756;2023-05-02T03:16:31;100220.25;;;9.53;88.01
6387;BME280;3226;42.162;24.756;2023-05-02T03:19:00;100234.69;;;9.59;88.70
6387;BME280;3226;42.162;24.756;2023-05-02T03:21:28;100219.44;;;9.52;87.60
6387;BME280;3226;42.162;24.756;2023-05-02T03:23:58;100227.50;;;9.62;87.93
6387;BME280;3226;42.162;24.756;2023-05-02T03:26:26;100237.44;;;9.44;89.74
6387;BME280;3226;42.162;24.756;2023-05-02T03:28:55;100241.81;;;9.05;91.77
6387;BME280;3226;42.162;24.756;2023-05-02T03:31:24;100242.66;;;9.18;91.44
6387;BME280;3226;42.162;24.756;2023-05-02T03:33:52;100238.25;;;9.32;91.96
6387;BME280;3226;42.162;24.756;2023-05-02T03:36:20;100244.84;;;9.24;92.02
6387;BME280;3226;42.162;24.756;2023-05-02T03:38:48;100245.97;;;9.07;93.59
6387;BME280;3226;42.162;24.756;2023-05-02T03:41:16;100253.53;;;9.12;94.78
6387;BME280;3226;42.162;24.756;2023-05-02T03:43:46;100257.63;;;9.29;92.21
6387;BME280;3226;42.162;24.756;2023-05-02T03:46:14;100261.69;;;9.20;91.45
6387;BME280;3226;42.162;24.756;2023-05-02T03:48:43;100266.81;;;9.48;91.27
6387;BME280;3226;42.162;24.756;2023-05-02T03:51:12;100258.97;;;9.48;91.84
6387;BME280;3226;42.162;24.756;2023-05-02T03:53:40;100269.13;;;9.65;91.38
6387;BME280;3226;42.162;24.756;2023-05-02T03:56:08;100271.94;;;9.75;90.41
6387;BME280;3226;42.162;24.756;2023-05-02T03:58:38;100261.69;;;9.59;89.65
6387;BME280;3226;42.162;24.756;2023-05-02T04:01:13;100270.88;;;9.78;89.32
6387;BME280;3226;42.162;24.756;2023-05-02T04:03:41;100268.97;;;9.93;88.39
6387;BME280;3226;42.162;24.756;2023-05-02T04:06:11;100276.56;;;10.22;86.89
6387;BME280;3226;42.162;24.756;2023-05-02T04:08:39;100275.38;;;10.26;87.08
6387;BME280;3226;42.162;24.756;2023-05-02T04:11:08;100260.41;;;10.28;84.99
6387;BME280;3226;42.162;24.756;2023-05-02T04:13:35;100283.09;;;10.40;86.79
6387;BME280;3226;42.162;24.756;2023-05-02T04:16:04;100286.13;;;10.72;85.39
6387;BME280;3226;42.162;24.756;2023-05-02T04:18:32;100290.34;;;10.85;83.48
6387;BME280;3226;42.162;24.756;2023-05-02T04:21:00;100292.25;;;10.59;84.64
6387;BME280;3226;42.162;24.756;2023-05-02T04:23:30;100295.56;;;10.50;84.58
6387;BME280;3226;42.162;24.756;2023-05-02T04:25:58;100298.28;;;10.48;84.43
6387;BME280;3226;42.162;24.756;2023-05-02T04:28:25;100300.22;;;10.58;83.45
6387;BME280;3226;42.162;24.756;2023-05-02T04:30:55;100299.28;;;10.59;82.22
6387;BME280;3226;42.162;24.756;2023-05-02T04:33:23;100300.28;;;10.45;82.02
6387;BME280;3226;42.162;24.756;2023-05-02T04:35:51;100298.28;;;10.73;81.40
6387;BME280;3226;42.162;24.756;2023-05-02T04:38:19;100296.22;;;10.89;80.07
6387;BME280;3226;42.162;24.756;2023-05-02T04:40:50;100303.84;;;10.92;80.33
6387;BME280;3226;42.162;24.756;2023-05-02T04:43:18;100301.72;;;10.97;80.47
6387;BME280;3226;42.162;24.756;2023-05-02T04:45:50;100296.56;;;11.20;79.02
6387;BME280;3226;42.162;24.756;2023-05-02T04:48:18;100297.78;;;11.39;78.12
6387;BME280;3226;42.162;24.756;2023-05-02T04:50:48;100291.94;;;11.35;77.80
6387;BME280;3226;42.162;24.756;2023-05-02T04:53:16;100289.81;;;11.40;76.72
6387;BME280;3226;42.162;24.756;2023-05-02T04:55:44;100294.72;;;11.68;75.25
6387;BME280;3226;42.162;24.756;2023-05-02T04:58:13;100297.59;;;11.88;74.31
6387;BME280;3226;42.162;24.756;2023-05-02T05:00:41;100302.84;;;11.88;71.26
6387;BME280;3226;42.162;24.756;2023-05-02T05:03:09;100297.38;;;12.02;73.72
6387;BME280;3226;42.162;24.756;2023-05-02T05:05:37;100310.16;;;12.07;71.15
6387;BME280;3226;42.162;24.756;2023-05-02T05:08:06;100304.97;;;11.60;65.15
6387;BME280;3226;42.162;24.756;2023-05-02T05:10:34;100300.72;;;11.93;65.80
6387;BME280;3226;42.162;24.756;2023-05-02T05:13:02;100306.22;;;12.01;65.13
6387;BME280;3226;42.162;24.756;2023-05-02T05:15:32;100307.38;;;12.31;63.54
6387;BME280;3226;42.162;24.756;2023-05-02T05:18:00;100306.53;;;13.07;60.02
6387;BME280;3226;42.162;24.756;2023-05-02T05:20:28;100306.66;;;13.06;61.72
6387;BME280;3226;42.162;24.756;2023-05-02T05:22:56;100306.03;;;13.13;60.72
6387;BME280;3226;42.162;24.756;2023-05-02T05:25:24;100312.13;;;13.35;59.74
6387;BME280;3226;42.162;24.756;2023-05-02T05:27:52;100318.19;;;14.70;57.01
6387;BME280;3226;42.162;24.756;2023-05-02T05:30:21;100325.66;;;16.57;50.43
6387;BME280;3226;42.162;24.756;2023-05-02T05:32:50;100318.13;;;16.98;48.50
6387;BME280;3226;42.162;24.756;2023-05-02T05:35:19;100304.84;;;17.96;46.14
6387;BME280;3226;42.162;24.756;2023-05-02T05:37:46;100322.69;;;16.96;48.64
6387;BME280;3226;42.162;24.756;2023-05-02T05:40:14;100324.56;;;16.03;50.90
6387;BME280;3226;42.162;24.756;2023-05-02T05:42:43;100327.53;;;15.71;51.54
6387;BME280;3226;42.162;24.756;2023-05-02T05:45:11;100332.75;;;14.64;54.79
6387;BME280;3226;42.162;24.756;2023-05-02T05:47:39;100334.50;;;14.34;56.44
6387;BME280;3226;42.162;24.756;2023-05-02T05:50:09;100333.44;;;14.56;56.77
6387;BME280;3226;42.162;24.756;2023-05-02T05:52:37;100342.09;;;15.27;54.91
6387;BME280;3226;42.162;24.756;2023-05-02T05:55:06;100336.38;;;15.99;54.21
6387;BME280;3226;42.162;24.756;2023-05-02T05:57:34;100334.47;;;17.38;51.78
6387;BME280;3226;42.162;24.756;2023-05-02T06:00:03;100335.81;;;18.30;47.41
6387;BME280;3226;42.162;24.756;2023-05-02T06:02:32;100330.19;;;18.41;47.08
6387;BME280;3226;42.162;24.756;2023-05-02T06:05:01;100334.41;;;17.83;48.23
6387;BME280;3226;42.162;24.756;2023-05-02T06:07:30;100346.09;;;15.41;50.32
6387;BME280;3226;42.162;24.756;2023-05-02T06:09:58;100354.88;;;15.32;51.19
6387;BME280;3226;42.162;24.756;2023-05-02T06:12:26;100339.03;;;15.22;51.53
6387;BME280;3226;42.162;24.756;2023-05-02T06:14:54;100348.69;;;14.12;53.58
6387;BME280;3226;42.162;24.756;2023-05-02T06:17:22;100333.00;;;14.00;55.28
6387;BME280;3226;42.162;24.756;2023-05-02T06:19:50;100324.00;;;14.13;55.94
6387;BME280;3226;42.162;24.756;2023-05-02T06:22:18;100341.25;;;14.27;56.41
6387;BME280;3226;42.162;24.756;2023-05-02T06:24:48;100338.91;;;14.74;55.79
6387;BME280;3226;42.162;24.756;2023-05-02T06:27:16;100337.94;;;14.85;53.12
6387;BME280;3226;42.162;24.756;2023-05-02T06:29:43;100333.09;;;14.91;54.57
6387;BME280;3226;42.162;24.756;2023-05-02T06:32:11;100339.34;;;14.89;53.69
6387;BME280;3226;42.162;24.756;2023-05-02T06:34:39;100334.59;;;14.83;54.12
6387;BME280;3226;42.162;24.756;2023-05-02T06:37:07;100316.53;;;14.69;53.81
6387;BME280;3226;42.162;24.756;2023-05-02T06:39:35;100328.16;;;14.56;55.54
6387;BME280;3226;42.162;24.756;2023-05-02T06:42:05;100323.94;;;14.24;56.34
6387;BME280;3226;42.162;24.756;2023-05-02T06:44:33;100331.34;;;14.50;55.70
6387;BME280;3226;42.162;24.756;2023-05-02T06:47:00;100325.13;;;14.51;55.97
6387;BME280;3226;42.162;24.756;2023-05-02T06:49:30;100317.69;;;14.25;57.15
6387;BME280;3226;42.162;24.756;2023-05-02T06:51:58;100326.78;;;14.52;55.47
6387;BME280;3226;42.162;24.756;2023-05-02T06:54:26;100326.25;;;14.68;56.34
6387;BME280;3226;42.162;24.756;2023-05-02T06:56:54;100329.88;;;14.77;55.59
6387;BME280;3226;42.162;24.756;2023-05-02T06:59:23;100330.56;;;14.79;56.78
6387;BME280;3226;42.162;24.756;2023-05-02T07:01:51;100323.38;;;15.21;55.05
6387;BME280;3226;42.162;24.756;2023-05-02T07:04:19;100325.03;;;15.12;54.69
6387;BME280;3226;42.162;24.756;2023-05-02T07:06:48;100322.13;;;14.85;54.69
6387;BME280;3226;42.162;24.756;2023-05-02T07:09:16;100327.81;;;14.91;55.06
6387;BME280;3226;42.162;24.756;2023-05-02T07:11:44;100321.00;;;14.98;54.40
6387;BME280;3226;42.162;24.756;2023-05-02T07:14:12;100310.44;;;15.17;53.74
6387;BME280;3226;42.162;24.756;2023-05-02T07:16:41;100326.81;;;15.41;51.82
6387;BME280;3226;42.162;24.756;2023-05-02T07:19:09;100327.63;;;15.31;51.23
6387;BME280;3226;42.162;24.756;2023-05-02T07:21:37;100320.09;;;15.46;49.13
6387;BME280;3226;42.162;24.756;2023-05-02T07:24:05;100314.41;;;15.51;48.87
6387;BME280;3226;42.162;24.756;2023-05-02T07:26:33;100321.72;;;15.77;48.29
6387;BME280;3226;42.162;24.756;2023-05-02T07:29:01;100321.13;;;15.83;48.54
6387;BME280;3226;42.162;24.756;2023-05-02T07:31:32;100324.44;;;15.85;48.03
6387;BME280;3226;42.162;24.756;2023-05-02T07:34:01;100319.16;;;15.95;47.47
6387;BME280;3226;42.162;24.756;2023-05-02T07:36:29;100311.66;;;15.90;48.04
6387;BME280;3226;42.162;24.756;2023-05-02T07:38:58;100304.44;;;15.93;50.07
6387;BME280;3226;42.162;24.756;2023-05-02T07:41:26;100308.53;;;16.05;50.30
6387;BME280;3226;42.162;24.756;2023-05-02T07:43:54;100304.91;;;16.34;48.30
6387;BME280;3226;42.162;24.756;2023-05-02T07:46:23;100307.50;;;16.44;47.84
6387;BME280;3226;42.162;24.756;2023-05-02T07:48:51;100308.63;;;16.41;46.84
6387;BME280;3226;42.162;24.756;2023-05-02T07:51:21;100294.53;;;16.51;46.87
6387;BME280;3226;42.162;24.756;2023-05-02T07:53:49;100294.22;;;16.54;43.79
6387;BME280;3226;42.162;24.756;2023-05-02T07:56:18;100295.81;;;16.65;43.64
6387;BME280;3226;42.162;24.756;2023-05-02T07:58:46;100292.00;;;16.49;43.21
6387;BME280;3226;42.162;24.756;2023-05-02T08:01:15;100289.38;;;16.67;43.68
6387;BME280;3226;42.162;24.756;2023-05-02T08:03:43;100288.19;;;16.80;43.35
6387;BME280;3226;42.162;24.756;2023-05-02T08:06:12;100292.88;;;17.04;41.78
6387;BME280;3226;42.162;24.756;2023-05-02T08:08:41;100281.66;;;17.10;38.99
6387;BME280;3226;42.162;24.756;2023-05-02T08:11:09;100285.56;;;17.24;40.82
6387;BME280;3226;42.162;24.756;2023-05-02T08:13:37;100290.59;;;17.09;39.84
6387;BME280;3226;42.162;24.756;2023-05-02T08:16:05;100288.75;;;17.10;39.66
6387;BME280;3226;42.162;24.756;2023-05-02T08:18:34;100286.66;;;17.40;38.34
6387;BME280;3226;42.162;24.756;2023-05-02T08:21:02;100280.25;;;17.42;38.23
6387;BME280;3226;42.162;24.756;2023-05-02T08:23:30;100273.34;;;17.23;38.20
6387;BME280;3226;42.162;24.756;2023-05-02T08:26:00;100277.00;;;17.30;37.46
6387;BME280;3226;42.162;24.756;2023-05-02T08:28:28;100278.47;;;17.51;38.56
6387;BME280;3226;42.162;24.756;2023-05-02T08:30:56;100271.06;;;17.63;37.81
6387;BME280;3226;42.162;24.756;2023-05-02T08:33:24;100268.66;;;17.78;37.04
6387;BME280;3226;42.162;24.756;2023-05-02T08:35:53;100272.38;;;17.94;37.70
6387;BME280;3226;42.162;24.756;2023-05-02T08:38:25;100258.81;;;17.97;37.81
6387;BME280;3226;42.162;24.756;2023-05-02T08:40:53;100267.56;;;17.97;36.43
6387;BME280;3226;42.162;24.756;2023-05-02T08:43:22;100269.78;;;18.10;36.68
6387;BME280;3226;42.162;24.756;2023-05-02T08:45:53;100276.19;;;17.99;35.66
6387;BME280;3226;42.162;24.756;2023-05-02T08:48:23;100258.81;;;17.97;36.01
6387;BME280;3226;42.162;24.756;2023-05-02T08:50:52;100260.25;;;18.26;36.90
6387;BME280;3226;42.162;24.756;2023-05-02T08:53:22;100258.59;;;18.25;35.98
6387;BME280;3226;42.162;24.756;2023-05-02T08:55:51;100258.06;;;18.21;35.45
6387;BME280;3226;42.162;24.756;2023-05-02T08:58:19;100243.97;;;18.12;34.92
6387;BME280;3226;42.162;24.756;2023-05-02T09:00:49;100250.31;;;18.44;35.31
6387;BME280;3226;42.162;24.756;2023-05-02T09:03:22;100254.47;;;18.72;36.09
6387;BME280;3226;42.162;24.756;2023-05-02T09:06:04;100249.50;;;18.69;34.30
6387;BME280;3226;42.162;24.756;2023-05-02T09:08:32;100248.34;;;18.55;35.40
6387;BME280;3226;42.162;24.756;2023-05-02T09:11:01;100241.88;;;18.74;36.12
6387;BME280;3226;42.162;24.756;2023-05-02T09:13:31;100246.53;;;18.88;34.67
6387;BME280;3226;42.162;24.756;2023-05-02T09:16:02;100225.81;;;18.67;33.82
6387;BME280;3226;42.162;24.756;2023-05-02T09:18:32;100232.41;;;18.38;35.34
6387;BME280;3226;42.162;24.756;2023-05-02T09:21:00;100236.91;;;18.54;35.02
6387;BME280;3226;42.162;24.756;2023-05-02T09:23:37;100231.78;;;18.77;34.60
6387;BME280;3226;42.162;24.756;2023-05-02T09:26:23;100221.34;;;18.51;34.74
6387;BME280;3226;42.162;24.756;2023-05-02T09:28:55;100226.47;;;18.77;36.55
6387;BME280;3226;42.162;24.756;2023-05-02T09:31:25;100232.94;;;18.83;34.66
6387;BME280;3226;42.162;24.756;2023-05-02T09:34:15;100223.47;;;18.81;35.12
6387;BME280;3226;42.162;24.756;2023-05-02T09:36:44;100218.34;;;18.79;34.17
6387;BME280;3226;42.162;24.756;2023-05-02T09:39:14;100215.84;;;18.77;33.85
6387;BME280;3226;42.162;24.756;2023-05-02T09:41:43;100215.84;;;18.77;33.32
6387;BME280;3226;42.162;24.756;2023-05-02T09:44:13;100215.19;;;18.67;33.75
6387;BME280;3226;42.162;24.756;2023-05-02T09:46:45;100215.25;;;19.40;33.55
6387;BME280;3226;42.162;24.756;2023-05-02T09:49:14;100208.81;;;19.34;32.61
6387;BME280;3226;42.162;24.756;2023-05-02T09:51:45;100192.63;;;19.04;33.56
6387;BME280;3226;42.162;24.756;2023-05-02T09:54:14;100191.97;;;19.02;34.93
6387;BME280;3226;42.162;24.756;2023-05-02T09:56:52;100186.63;;;19.19;34.30
6387;BME280;3226;42.162;24.756;2023-05-02T09:59:22;100188.09;;;19.30;34.65
6387;BME280;3226;42.162;24.756;2023-05-02T10:01:55;100178.97;;;19.24;33.16
6387;BME280;3226;42.162;24.756;2023-05-02T10:04:25;100190.09;;;19.28;34.71
6387;BME280;3226;42.162;24.756;2023-05-02T10:06:54;100183.31;;;19.17;33.29
6387;BME280;3226;42.162;24.756;2023-05-02T10:09:22;100170.34;;;19.22;33.20
6387;BME280;3226;42.162;24.756;2023-05-02T10:11:51;100192.59;;;19.29;32.96
6387;BME280;3226;42.162;24.756;2023-05-02T10:14:21;100188.00;;;18.98;33.59
6387;BME280;3226;42.162;24.756;2023-05-02T10:16:57;100161.63;;;18.88;33.68
6387;BME280;3226;42.162;24.756;2023-05-02T10:19:29;100185.31;;;19.15;34.86
6387;BME280;3226;42.162;24.756;2023-05-02T10:21:57;100174.50;;;19.25;33.82
6387;BME280;3226;42.162;24.756;2023-05-02T10:24:26;100170.25;;;19.47;33.15
6387;BME280;3226;42.162;24.756;2023-05-02T10:26:55;100168.66;;;19.38;33.45
6387;BME280;3226;42.162;24.756;2023-05-02T10:29:24;100172.56;;;19.50;32.55
6387;BME280;3226;42.162;24.756;2023-05-02T10:31:55;100161.75;;;19.60;32.25
6387;BME280;3226;42.162;24.756;2023-05-02T10:34:24;100149.88;;;19.39;31.74
6387;BME280;3226;42.162;24.756;2023-05-02T10:36:54;100167.53;;;19.24;31.72
6387;BME280;3226;42.162;24.756;2023-05-02T10:39:22;100140.13;;;19.31;32.70
6387;BME280;3226;42.162;24.756;2023-05-02T10:41:53;100158.63;;;19.48;31.86
6387;BME280;3226;42.162;24.756;2023-05-02T10:44:32;100152.44;;;19.64;31.93
6387;BME280;3226;42.162;24.756;2023-05-02T10:47:17;100149.78;;;19.87;31.83
6387;BME280;3226;42.162;24.756;2023-05-02T10:49:50;100149.84;;;19.79;31.42
6387;BME280;3226;42.162;24.756;2023-05-02T10:52:28;100155.88;;;19.73;31.12
6387;BME280;3226;42.162;24.756;2023-05-02T10:55:16;100152.28;;;19.57;30.87
6387;BME280;3226;42.162;24.756;2023-05-02T10:58:19;100147.31;;;19.54;31.04
6387;BME280;3226;42.162;24.756;2023-05-02T11:00:48;100142.53;;;19.81;31.83
6387;BME280;3226;42.162;24.756;2023-05-02T11:06:18;100141.38;;;19.84;31.34
6387;BME280;3226;42.162;24.756;2023-05-02T11:08:46;100156.47;;;19.83;31.41
6387;BME280;3226;42.162;24.756;2023-05-02T11:11:39;100141.28;;;20.00;32.06
6387;BME280;3226;42.162;24.756;2023-05-02T11:14:09;100140.25;;;20.25;32.29
6387;BME280;3226;42.162;24.756;2023-05-02T11:17:08;100144.84;;;20.31;31.20
6387;BME280;3226;42.162;24.756;2023-05-02T11:22:58;100133.47;;;20.60;30.01
6387;BME280;3226;42.162;24.756;2023-05-02T11:25:34;100115.63;;;20.69;30.28
6387;BME280;3226;42.162;24.756;2023-05-02T11:28:06;100124.88;;;20.73;29.41
6387;BME280;3226;42.162;24.756;2023-05-02T11:30:42;100127.25;;;20.53;29.45
6387;BME280;3226;42.162;24.756;2023-05-02T11:33:15;100126.94;;;20.48;30.08
6387;BME280;3226;42.162;24.756;2023-05-02T11:35:44;100103.63;;;20.12;29.48
6387;BME280;3226;42.162;24.756;2023-05-02T11:38:16;100126.47;;;20.06;29.50
6387;BME280;3226;42.162;24.756;2023-05-02T11:40:57;100118.13;;;20.09;30.22
6387;BME280;3226;42.162;24.756;2023-05-02T11:43:27;100126.31;;;20.22;29.18
6387;BME280;3226;42.162;24.756;2023-05-02T11:45:58;100110.59;;;20.13;29.02
6387;BME280;3226;42.162;24.756;2023-05-02T11:48:28;100111.25;;;20.38;29.72
6387;BME280;3226;42.162;24.756;2023-05-02T11:50:58;100105.56;;;20.41;29.36
6387;BME280;3226;42.162;24.756;2023-05-02T11:53:30;100103.72;;;20.42;28.81
6387;BME280;3226;42.162;24.756;2023-05-02T11:55:59;100098.97;;;20.37;29.68
6387;BME280;3226;42.162;24.756;2023-05-02T11:58:29;100092.19;;;20.49;29.91
6387;BME280;3226;42.162;24.756;2023-05-02T12:00:59;100093.28;;;20.40;29.70
6387;BME280;3226;42.162;24.756;2023-05-02T12:03:39;100078.91;;;20.64;29.37
6387;BME280;3226;42.162;24.756;2023-05-02T12:06:08;100086.25;;;20.77;29.83
6387;BME280;3226;42.162;24.756;2023-05-02T12:08:41;100081.09;;;20.76;30.30
6387;BME280;3226;42.162;24.756;2023-05-02T12:11:12;100075.97;;;20.59;29.03
6387;BME280;3226;42.162;24.756;2023-05-02T12:13:44;100076.03;;;20.66;30.09
6387;BME280;3226;42.162;24.756;2023-05-02T12:16:13;100060.19;;;20.88;29.89
6387;BME280;3226;42.162;24.756;2023-05-02T12:18:42;100080.69;;;20.87;29.09
6387;BME280;3226;42.162;24.756;2023-05-02T12:21:10;100083.47;;;20.71;29.92
6387;BME280;3226;42.162;24.756;2023-05-02T12:23:40;100076.13;;;20.58;30.16
6387;BME280;3226;42.162;24.756;2023-05-02T12:26:18;100070.00;;;20.57;30.22
6387;BME280;3226;42.162;24.756;2023-05-02T12:28:47;100055.41;;;20.68;30.99
6387;BME280;3226;42.162;24.756;2023-05-02T12:31:16;100045.63;;;20.84;31.47
6387;BME280;3226;42.162;24.756;2023-05-02T12:33:45;100059.81;;;20.76;29.38
6387;BME280;3226;42.162;24.756;2023-05-02T12:36:15;100018.44;;;20.73;30.48
6387;BME280;3226;42.162;24.756;2023-05-02T12:38:49;100029.25;;;20.72;30.44
6387;BME280;3226;42.162;24.756;2023-05-02T12:41:30;100024.69;;;20.80;29.23
6387;BME280;3226;42.162;24.756;2023-05-02T12:43:58;100031.06;;;21.01;30.52
6387;BME280;3226;42.162;24.756;2023-05-02T12:46:27;100019.28;;;20.89;29.46
6387;BME280;3226;42.162;24.756;2023-05-02T12:49:02;100011.75;;;20.92;29.57
6387;BME280;3226;42.162;24.756;2023-05-02T12:51:31;100015.94;;;21.02;28.41
6387;BME280;3226;42.162;24.756;2023-05-02T12:54:02;100000.53;;;20.97;28.95
6387;BME280;3226;42.162;24.756;2023-05-02T12:56:37;100014.00;;;21.11;30.00
6387;BME280;3226;42.162;24.756;2023-05-02T12:59:06;99999.88;;;20.95;29.90
6387;BME280;3226;42.162;24.756;2023-05-02T13:01:35;99987.59;;;20.94;31.01
6387;BME280;3226;42.162;24.756;2023-05-02T13:04:03;100000.19;;;20.70;30.09
6387;BME280;3226;42.162;24.756;2023-05-02T13:06:31;100001.16;;;20.99;29.61
6387;BME280;3226;42.162;24.756;2023-05-02T13:09:04;99994.81;;;21.00;28.93
6387;BME280;3226;42.162;24.756;2023-05-02T13:11:33;99995.75;;;21.07;30.13
6387;BME280;3226;42.162;24.756;2023-05-02T13:14:01;99980.84;;;21.13;29.83
6387;BME280;3226;42.162;24.756;2023-05-02T13:16:31;99979.16;;;21.49;29.32
6387;BME280;3226;42.162;24.756;2023-05-02T13:19:02;99980.31;;;21.40;28.35
6387;BME280;3226;42.162;24.756;2023-05-02T13:21:30;99983.84;;;21.25;28.86
6387;BME280;3226;42.162;24.756;2023-05-02T13:23:58;99984.53;;;21.12;29.17
6387;BME280;3226;42.162;24.756;2023-05-02T13:26:28;99987.75;;;21.07;30.56